sensor_id;sensor_type;location;lat;lon;timestamp;P1;durP1;ratioP1;P2;durP2;ratioP2
12658;SDS011;6394;52.488;13.386;2022-10-16T00:01:04;1.73;;;1.40;;
12658;SDS011;6394;52.488;13.386;2022-10-16T00:03:31;1.47;;;1.30;;
12658;SDS011;6394;52.488;13.386;2022-10-16T00:06:00;2.30;;;1.10;;
12658;SDS011;6394;52.488;13.386;2022-10-16T00:08:28;6.10;;;1.70;;
12658;SDS011;6394;52.488;13.386;2022-10-16T00:10:58;1.43;;;1.20;;
12658;SDS011;6394;52.488;13.386;2022-10-16T00:13:25;1.60;;;1.30;;
12658;SDS011;6394;52.488;13.386;2022-10-16T00:15:54;1.10;;;1.00;;
12658;SDS011;6394;52.488;13.386;2022-10-16T00:18:22;1.30;;;1.20;;
12658;SDS011;6394;52.488;13.386;2022-10-16T00:20:49;2.40;;;1.20;;
12658;SDS011;6394;52.488;13.386;2022-10-16T00:23:17;1.23;;;1.13;;
12658;SDS011;6394;52.488;13.386;2022-10-16T00:25:45;1.73;;;1.33;;
12658;SDS011;6394;52.488;13.386;2022-10-16T00:28:21;3.63;;;1.17;;
12658;SDS011;6394;52.488;13.386;2022-10-16T00:30:48;1.67;;;1.30;;
12658;SDS011;6394;52.488;13.386;2022-10-16T00:33:15;3.30;;;1.57;;
12658;SDS011;6394;52.488;13.386;2022-10-16T00:35:42;1.70;;;1.10;;
12658;SDS011;6394;52.488;13.386;2022-10-16T00:38:11;1.77;;;1.30;;
12658;SDS011;6394;52.488;13.386;2022-10-16T00:40:40;1.20;;;1.10;;
12658;SDS011;6394;52.488;13.386;2022-10-16T00:43:11;2.63;;;1.33;;
12658;SDS011;6394;52.488;13.386;2022-10-16T00:45:39;1.23;;;1.10;;
12658;SDS011;6394;52.488;13.386;2022-10-16T00:48:06;1.97;;;1.30;;
12658;SDS011;6394;52.488;13.386;2022-10-16T00:50:37;1.00;;;0.90;;
12658;SDS011;6394;52.488;13.386;2022-10-16T00:53:08;2.30;;;1.07;;
12658;SDS011;6394;52.488;13.386;2022-10-16T00:55:35;1.47;;;1.00;;
12658;SDS011;6394;52.488;13.386;2022-10-16T00:58:04;2.73;;;1.00;;
12658;SDS011;6394;52.488;13.386;2022-10-16T01:00:32;0.87;;;0.87;;
12658;SDS011;6394;52.488;13.386;2022-10-16T01:03:00;0.80;;;0.80;;
12658;SDS011;6394;52.488;13.386;2022-10-16T01:05:30;1.63;;;1.03;;
12658;SDS011;6394;52.488;13.386;2022-10-16T01:08:00;0.90;;;0.80;;
12658;SDS011;6394;52.488;13.386;2022-10-16T01:10:33;0.83;;;0.83;;
12658;SDS011;6394;52.488;13.386;2022-10-16T01:13:03;1.20;;;1.10;;
12658;SDS011;6394;52.488;13.386;2022-10-16T01:15:32;1.30;;;1.20;;
12658;SDS011;6394;52.488;13.386;2022-10-16T01:18:01;1.73;;;1.20;;
12658;SDS011;6394;52.488;13.386;2022-10-16T01:20:33;1.73;;;1.10;;
12658;SDS011;6394;52.488;13.386;2022-10-16T01:23:06;1.43;;;0.90;;
12658;SDS011;6394;52.488;13.386;2022-10-16T01:25:49;1.10;;;1.00;;
12658;SDS011;6394;52.488;13.386;2022-10-16T01:28:21;1.10;;;1.00;;
12658;SDS011;6394;52.488;13.386;2022-10-16T01:30:49;1.90;;;1.10;;
12658;SDS011;6394;52.488;13.386;2022-10-16T01:33:20;1.20;;;0.90;;
12658;SDS011;6394;52.488;13.386;2022-10-16T01:35:50;1.30;;;1.20;;
12658;SDS011;6394;52.488;13.386;2022-10-16T01:38:20;1.10;;;0.87;;
12658;SDS011;6394;52.488;13.386;2022-10-16T01:40:49;1.20;;;1.10;;
12658;SDS011;6394;52.488;13.386;2022-10-16T01:43:18;1.27;;;1.00;;
12658;SDS011;6394;52.488;13.386;2022-10-16T01:45:47;1.70;;;0.93;;
12658;SDS011;6394;52.488;13.386;2022-10-16T01:48:16;0.90;;;0.90;;
12658;SDS011;6394;52.488;13.386;2022-10-16T01:50:48;1.57;;;0.90;;
12658;SDS011;6394;52.488;13.386;2022-10-16T01:53:17;1.33;;;0.90;;
12658;SDS011;6394;52.488;13.386;2022-10-16T01:55:46;3.73;;;1.00;;
12658;SDS011;6394;52.488;13.386;2022-10-16T01:58:14;1.40;;;1.10;;
12658;SDS011;6394;52.488;13.386;2022-10-16T02:00:42;1.23;;;1.00;;
12658;SDS011;6394;52.488;13.386;2022-10-16T02:03:12;1.50;;;0.80;;
12658;SDS011;6394;52.488;13.386;2022-10-16T02:05:41;0.83;;;0.83;;
12658;SDS011;6394;52.488;13.386;2022-10-16T02:08:11;1.37;;;1.13;;
12658;SDS011;6394;52.488;13.386;2022-10-16T02:10:39;1.67;;;1.10;;
12658;SDS011;6394;52.488;13.386;2022-10-16T02:13:07;1.20;;;0.90;;
12658;SDS011;6394;52.488;13.386;2022-10-16T02:15:35;1.73;;;0.97;;
12658;SDS011;6394;52.488;13.386;2022-10-16T02:18:02;1.93;;;0.97;;
12658;SDS011;6394;52.488;13.386;2022-10-16T02:20:32;1.07;;;1.00;;
12658;SDS011;6394;52.488;13.386;2022-10-16T02:23:01;1.10;;;1.07;;
12658;SDS011;6394;52.488;13.386;2022-10-16T02:25:29;2.40;;;1.20;;
12658;SDS011;6394;52.488;13.386;2022-10-16T02:27:57;1.50;;;1.03;;
12658;SDS011;6394;52.488;13.386;2022-10-16T02:30:28;1.43;;;1.00;;
12658;SDS011;6394;52.488;13.386;2022-10-16T02:32:56;1.37;;;0.93;;
12658;SDS011;6394;52.488;13.386;2022-10-16T02:35:25;1.10;;;1.00;;
12658;SDS011;6394;52.488;13.386;2022-10-16T02:37:55;2.03;;;0.90;;
12658;SDS011;6394;52.488;13.386;2022-10-16T02:40:23;1.40;;;1.10;;
12658;SDS011;6394;52.488;13.386;2022-10-16T02:42:51;1.27;;;1.00;;
12658;SDS011;6394;52.488;13.386;2022-10-16T02:45:18;1.33;;;1.00;;
12658;SDS011;6394;52.488;13.386;2022-10-16T02:47:46;1.77;;;0.90;;
12658;SDS011;6394;52.488;13.386;2022-10-16T02:50:14;2.63;;;1.10;;
12658;SDS011;6394;52.488;13.386;2022-10-16T02:52:41;1.17;;;0.90;;
12658;SDS011;6394;52.488;13.386;2022-10-16T02:55:09;2.83;;;0.97;;
12658;SDS011;6394;52.488;13.386;2022-10-16T02:57:37;1.37;;;1.00;;
12658;SDS011;6394;52.488;13.386;2022-10-16T03:00:05;1.20;;;1.10;;
12658;SDS011;6394;52.488;13.386;2022-10-16T03:02:33;3.03;;;1.30;;
12658;SDS011;6394;52.488;13.386;2022-10-16T03:05:00;1.57;;;1.00;;
12658;SDS011;6394;52.488;13.386;2022-10-16T03:07:27;1.67;;;0.90;;
12658;SDS011;6394;52.488;13.386;2022-10-16T03:09:55;2.40;;;1.13;;
12658;SDS011;6394;52.488;13.386;2022-10-16T03:12:26;1.30;;;1.20;;
12658;SDS011;6394;52.488;13.386;2022-10-16T03:14:54;1.00;;;1.00;;
12658;SDS011;6394;52.488;13.386;2022-10-16T03:17:21;1.20;;;1.10;;
12658;SDS011;6394;52.488;13.386;2022-10-16T03:19:49;1.80;;;1.10;;
12658;SDS011;6394;52.488;13.386;2022-10-16T03:22:16;1.20;;;1.10;;
12658;SDS011;6394;52.488;13.386;2022-10-16T03:24:44;1.17;;;1.07;;
12658;SDS011;6394;52.488;13.386;2022-10-16T03:27:11;1.87;;;1.30;;
12658;SDS011;6394;52.488;13.386;2022-10-16T03:29:41;3.20;;;1.20;;
12658;SDS011;6394;52.488;13.386;2022-10-16T03:32:08;2.63;;;1.10;;
12658;SDS011;6394;52.488;13.386;2022-10-16T03:34:37;1.30;;;1.20;;
12658;SDS011;6394;52.488;13.386;2022-10-16T03:37:06;2.03;;;1.07;;
12658;SDS011;6394;52.488;13.386;2022-10-16T03:39:33;1.43;;;1.20;;
12658;SDS011;6394;52.488;13.386;2022-10-16T03:42:01;1.53;;;0.90;;
12658;SDS011;6394;52.488;13.386;2022-10-16T03:44:28;2.23;;;1.40;;
12658;SDS011;6394;52.488;13.386;2022-10-16T03:46:59;2.20;;;1.30;;
12658;SDS011;6394;52.488;13.386;2022-10-16T03:49:27;1.43;;;1.10;;
12658;SDS011;6394;52.488;13.386;2022-10-16T03:51:55;2.60;;;1.20;;
12658;SDS011;6394;52.488;13.386;2022-10-16T03:54:23;1.53;;;1.30;;
12658;SDS011;6394;52.488;13.386;2022-10-16T03:56:50;1.80;;;1.50;;
12658;SDS011;6394;52.488;13.386;2022-10-16T03:59:17;2.20;;;1.50;;
12658;SDS011;6394;52.488;13.386;2022-10-16T04:01:45;2.60;;;1.40;;
12658;SDS011;6394;52.488;13.386;2022-10-16T04:04:13;2.23;;;1.50;;
12658;SDS011;6394;52.488;13.386;2022-10-16T04:06:41;2.80;;;1.40;;
12658;SDS011;6394;52.488;13.386;2022-10-16T04:09:08;2.07;;;1.33;;
12658;SDS011;6394;52.488;13.386;2022-10-16T04:11:35;2.53;;;1.30;;
12658;SDS011;6394;52.488;13.386;2022-10-16T04:14:04;2.80;;;1.10;;
12658;SDS011;6394;52.488;13.386;2022-10-16T04:16:31;1.07;;;1.07;;
12658;SDS011;6394;52.488;13.386;2022-10-16T04:19:01;1.57;;;1.47;;
12658;SDS011;6394;52.488;13.386;2022-10-16T04:21:31;2.13;;;1.10;;
12658;SDS011;6394;52.488;13.386;2022-10-16T04:23:58;1.30;;;1.20;;
12658;SDS011;6394;52.488;13.386;2022-10-16T04:26:26;1.50;;;1.40;;
12658;SDS011;6394;52.488;13.386;2022-10-16T04:28:54;1.33;;;1.23;;
12658;SDS011;6394;52.488;13.386;2022-10-16T04:31:23;2.23;;;1.30;;
12658;SDS011;6394;52.488;13.386;2022-10-16T04:33:50;2.10;;;1.30;;
12658;SDS011;6394;52.488;13.386;2022-10-16T04:36:17;1.20;;;1.10;;
12658;SDS011;6394;52.488;13.386;2022-10-16T04:38:46;4.80;;;1.70;;
12658;SDS011;6394;52.488;13.386;2022-10-16T04:41:13;1.93;;;1.20;;
12658;SDS011;6394;52.488;13.386;2022-10-16T04:43:40;1.63;;;1.20;;
12658;SDS011;6394;52.488;13.386;2022-10-16T04:46:08;1.93;;;1.60;;
12658;SDS011;6394;52.488;13.386;2022-10-16T04:48:38;3.27;;;1.40;;
12658;SDS011;6394;52.488;13.386;2022-10-16T04:51:05;2.47;;;1.47;;
12658;SDS011;6394;52.488;13.386;2022-10-16T04:53:35;1.53;;;1.43;;
12658;SDS011;6394;52.488;13.386;2022-10-16T04:56:04;3.10;;;1.70;;
12658;SDS011;6394;52.488;13.386;2022-10-16T04:58:33;3.70;;;1.53;;
12658;SDS011;6394;52.488;13.386;2022-10-16T05:01:00;1.50;;;1.40;;
12658;SDS011;6394;52.488;13.386;2022-10-16T05:03:27;1.97;;;1.33;;
12658;SDS011;6394;52.488;13.386;2022-10-16T05:05:55;1.40;;;1.30;;
12658;SDS011;6394;52.488;13.386;2022-10-16T05:08:22;3.47;;;1.60;;
12658;SDS011;6394;52.488;13.386;2022-10-16T05:10:49;1.50;;;1.40;;
12658;SDS011;6394;52.488;13.386;2022-10-16T05:13:19;2.00;;;1.67;;
12658;SDS011;6394;52.488;13.386;2022-10-16T05:15:48;2.13;;;1.80;;
12658;SDS011;6394;52.488;13.386;2022-10-16T05:18:16;3.00;;;1.60;;
12658;SDS011;6394;52.488;13.386;2022-10-16T05:20:43;3.23;;;1.53;;
12658;SDS011;6394;52.488;13.386;2022-10-16T05:23:10;3.33;;;1.70;;
12658;SDS011;6394;52.488;13.386;2022-10-16T05:25:38;3.03;;;1.97;;
12658;SDS011;6394;52.488;13.386;2022-10-16T05:28:05;3.03;;;2.70;;
12658;SDS011;6394;52.488;13.386;2022-10-16T05:30:34;3.40;;;2.10;;
12658;SDS011;6394;52.488;13.386;2022-10-16T05:33:03;2.13;;;1.93;;
12658;SDS011;6394;52.488;13.386;2022-10-16T05:35:31;2.93;;;2.20;;
12658;SDS011;6394;52.488;13.386;2022-10-16T05:37:59;2.10;;;2.00;;
12658;SDS011;6394;52.488;13.386;2022-10-16T05:40:26;2.53;;;2.33;;
12658;SDS011;6394;52.488;13.386;2022-10-16T05:42:54;2.57;;;2.10;;
12658;SDS011;6394;52.488;13.386;2022-10-16T05:45:22;3.37;;;2.40;;
12658;SDS011;6394;52.488;13.386;2022-10-16T05:47:51;2.70;;;2.17;;
12658;SDS011;6394;52.488;13.386;2022-10-16T05:50:19;2.90;;;2.10;;
12658;SDS011;6394;52.488;13.386;2022-10-16T05:52:46;2.40;;;2.20;;
12658;SDS011;6394;52.488;13.386;2022-10-16T05:55:13;2.83;;;2.30;;
12658;SDS011;6394;52.488;13.386;2022-10-16T05:57:42;2.47;;;2.23;;
12658;SDS011;6394;52.488;13.386;2022-10-16T06:00:09;4.87;;;2.10;;
12658;SDS011;6394;52.488;13.386;2022-10-16T06:02:37;2.30;;;2.03;;
12658;SDS011;6394;52.488;13.386;2022-10-16T06:05:07;4.73;;;2.30;;
12658;SDS011;6394;52.488;13.386;2022-10-16T06:07:37;3.77;;;2.27;;
12658;SDS011;6394;52.488;13.386;2022-10-16T06:10:05;2.00;;;1.80;;
12658;SDS011;6394;52.488;13.386;2022-10-16T06:12:32;3.93;;;1.90;;
12658;SDS011;6394;52.488;13.386;2022-10-16T06:14:59;2.67;;;1.77;;
12658;SDS011;6394;52.488;13.386;2022-10-16T06:17:27;3.53;;;1.93;;
12658;SDS011;6394;52.488;13.386;2022-10-16T06:19:54;2.97;;;1.97;;
12658;SDS011;6394;52.488;13.386;2022-10-16T06:22:22;3.90;;;2.10;;
12658;SDS011;6394;52.488;13.386;2022-10-16T06:24:50;2.17;;;1.90;;
12658;SDS011;6394;52.488;13.386;2022-10-16T06:27:17;1.60;;;1.50;;
12658;SDS011;6394;52.488;13.386;2022-10-16T06:29:44;2.17;;;1.90;;
12658;SDS011;6394;52.488;13.386;2022-10-16T06:32:12;3.23;;;2.13;;
12658;SDS011;6394;52.488;13.386;2022-10-16T06:34:39;2.70;;;2.10;;
12658;SDS011;6394;52.488;13.386;2022-10-16T06:37:06;4.90;;;2.57;;
12658;SDS011;6394;52.488;13.386;2022-10-16T06:39:35;3.07;;;2.30;;
12658;SDS011;6394;52.488;13.386;2022-10-16T06:42:02;2.63;;;1.90;;
12658;SDS011;6394;52.488;13.386;2022-10-16T06:44:29;3.90;;;1.93;;
12658;SDS011;6394;52.488;13.386;2022-10-16T06:46:57;3.43;;;1.93;;
12658;SDS011;6394;52.488;13.386;2022-10-16T06:49:24;1.83;;;1.47;;
12658;SDS011;6394;52.488;13.386;2022-10-16T06:51:51;1.80;;;1.70;;
12658;SDS011;6394;52.488;13.386;2022-10-16T06:54:18;2.77;;;1.73;;
12658;SDS011;6394;52.488;13.386;2022-10-16T06:56:47;1.73;;;1.50;;
12658;SDS011;6394;52.488;13.386;2022-10-16T06:59:14;2.00;;;1.57;;
12658;SDS011;6394;52.488;13.386;2022-10-16T07:01:41;2.03;;;1.50;;
12658;SDS011;6394;52.488;13.386;2022-10-16T07:04:08;4.80;;;2.43;;
12658;SDS011;6394;52.488;13.386;2022-10-16T07:06:36;2.83;;;1.70;;
12658;SDS011;6394;52.488;13.386;2022-10-16T07:09:04;3.03;;;1.50;;
12658;SDS011;6394;52.488;13.386;2022-10-16T07:11:32;3.17;;;1.33;;
12658;SDS011;6394;52.488;13.386;2022-10-16T07:14:00;2.07;;;1.20;;
12658;SDS011;6394;52.488;13.386;2022-10-16T07:16:30;1.40;;;0.90;;
12658;SDS011;6394;52.488;13.386;2022-10-16T07:18:58;2.03;;;1.10;;
12658;SDS011;6394;52.488;13.386;2022-10-16T07:21:26;2.70;;;0.80;;
12658;SDS011;6394;52.488;13.386;2022-10-16T07:23:54;1.20;;;1.00;;
12658;SDS011;6394;52.488;13.386;2022-10-16T07:26:22;1.60;;;1.50;;
12658;SDS011;6394;52.488;13.386;2022-10-16T07:28:49;1.17;;;1.00;;
12658;SDS011;6394;52.488;13.386;2022-10-16T07:31:19;1.97;;;1.00;;
12658;SDS011;6394;52.488;13.386;2022-10-16T07:33:46;2.00;;;0.80;;
12658;SDS011;6394;52.488;13.386;2022-10-16T07:36:14;2.33;;;1.03;;
12658;SDS011;6394;52.488;13.386;2022-10-16T07:38:42;2.50;;;1.10;;
12658;SDS011;6394;52.488;13.386;2022-10-16T07:41:10;2.20;;;1.20;;
12658;SDS011;6394;52.488;13.386;2022-10-16T07:43:38;1.67;;;1.00;;
12658;SDS011;6394;52.488;13.386;2022-10-16T07:46:06;2.80;;;1.03;;
12658;SDS011;6394;52.488;13.386;2022-10-16T07:48:35;2.90;;;1.40;;
12658;SDS011;6394;52.488;13.386;2022-10-16T07:51:03;5.43;;;1.80;;
12658;SDS011;6394;52.488;13.386;2022-10-16T07:53:30;2.67;;;1.20;;
12658;SDS011;6394;52.488;13.386;2022-10-16T07:55:58;3.57;;;1.67;;
12658;SDS011;6394;52.488;13.386;2022-10-16T07:58:25;3.37;;;1.40;;
12658;SDS011;6394;52.488;13.386;2022-10-16T08:00:52;3.00;;;1.10;;
12658;SDS011;6394;52.488;13.386;2022-10-16T08:03:20;2.50;;;1.10;;
12658;SDS011;6394;52.488;13.386;2022-10-16T08:05:48;3.97;;;1.40;;
12658;SDS011;6394;52.488;13.386;2022-10-16T08:08:16;1.73;;;1.30;;
12658;SDS011;6394;52.488;13.386;2022-10-16T08:10:43;2.53;;;1.53;;
12658;SDS011;6394;52.488;13.386;2022-10-16T08:13:11;5.03;;;1.50;;
12658;SDS011;6394;52.488;13.386;2022-10-16T08:15:40;1.20;;;1.10;;
12658;SDS011;6394;52.488;13.386;2022-10-16T08:18:07;1.00;;;0.90;;
12658;SDS011;6394;52.488;13.386;2022-10-16T08:20:36;1.80;;;1.20;;
12658;SDS011;6394;52.488;13.386;2022-10-16T08:23:05;2.20;;;0.80;;
12658;SDS011;6394;52.488;13.386;2022-10-16T08:25:33;1.60;;;0.90;;
12658;SDS011;6394;52.488;13.386;2022-10-16T08:28:02;1.83;;;0.90;;
12658;SDS011;6394;52.488;13.386;2022-10-16T08:30:30;0.80;;;0.80;;
12658;SDS011;6394;52.488;13.386;2022-10-16T08:32:58;2.50;;;0.80;;
12658;SDS011;6394;52.488;13.386;2022-10-16T08:35:25;1.37;;;0.73;;
12658;SDS011;6394;52.488;13.386;2022-10-16T08:37:52;3.03;;;0.97;;
12658;SDS011;6394;52.488;13.386;2022-10-16T08:40:23;0.93;;;0.77;;
12658;SDS011;6394;52.488;13.386;2022-10-16T08:42:55;1.33;;;0.90;;
12658;SDS011;6394;52.488;13.386;2022-10-16T08:45:29;0.87;;;0.80;;
12658;SDS011;6394;52.488;13.386;2022-10-16T08:48:00;1.70;;;0.80;;
12658;SDS011;6394;52.488;13.386;2022-10-16T08:50:31;1.90;;;0.80;;
12658;SDS011;6394;52.488;13.386;2022-10-16T08:52:59;2.23;;;1.00;;
12658;SDS011;6394;52.488;13.386;2022-10-16T08:55:32;1.30;;;0.80;;
12658;SDS011;6394;52.488;13.386;2022-10-16T08:58:00;3.57;;;0.70;;
12658;SDS011;6394;52.488;13.386;2022-10-16T09:00:28;2.50;;;0.80;;
12658;SDS011;6394;52.488;13.386;2022-10-16T09:02:59;1.37;;;0.80;;
12658;SDS011;6394;52.488;13.386;2022-10-16T09:08:19;0.80;;;0.80;;
12658;SDS011;6394;52.488;13.386;2022-10-16T09:10:52;2.30;;;0.67;;
12658;SDS011;6394;52.488;13.386;2022-10-16T09:13:26;0.97;;;0.70;;
12658;SDS011;6394;52.488;13.386;2022-10-16T09:15:55;2.07;;;0.80;;
12658;SDS011;6394;52.488;13.386;2022-10-16T09:18:26;0.70;;;0.50;;
12658;SDS011;6394;52.488;13.386;2022-10-16T09:20:58;1.10;;;0.70;;
12658;SDS011;6394;52.488;13.386;2022-10-16T09:23:26;2.57;;;0.70;;
12658;SDS011;6394;52.488;13.386;2022-10-16T09:25:55;3.10;;;0.87;;
12658;SDS011;6394;52.488;13.386;2022-10-16T09:28:24;0.60;;;0.60;;
12658;SDS011;6394;52.488;13.386;2022-10-16T09:30:51;0.83;;;0.70;;
12658;SDS011;6394;52.488;13.386;2022-10-16T09:33:20;0.87;;;0.70;;
12658;SDS011;6394;52.488;13.386;2022-10-16T09:35:48;1.00;;;0.60;;
12658;SDS011;6394;52.488;13.386;2022-10-16T09:38:25;1.80;;;0.70;;
12658;SDS011;6394;52.488;13.386;2022-10-16T09:40:55;0.60;;;0.60;;
12658;SDS011;6394;52.488;13.386;2022-10-16T09:43:23;1.67;;;0.60;;
12658;SDS011;6394;52.488;13.386;2022-10-16T09:45:56;2.40;;;0.80;;
12658;SDS011;6394;52.488;13.386;2022-10-16T09:48:25;1.30;;;0.80;;
12658;SDS011;6394;52.488;13.386;2022-10-16T09:50:57;3.20;;;0.50;;
12658;SDS011;6394;52.488;13.386;2022-10-16T09:53:25;0.70;;;0.60;;
12658;SDS011;6394;52.488;13.386;2022-10-16T09:55:53;1.70;;;0.80;;
12658;SDS011;6394;52.488;13.386;2022-10-16T09:58:22;1.00;;;0.47;;
12658;SDS011;6394;52.488;13.386;2022-10-16T10:00:50;0.80;;;0.63;;
12658;SDS011;6394;52.488;13.386;2022-10-16T10:03:30;2.90;;;0.70;;
12658;SDS011;6394;52.488;13.386;2022-10-16T10:06:00;2.40;;;0.80;;
12658;SDS011;6394;52.488;13.386;2022-10-16T10:08:29;0.70;;;0.60;;
12658;SDS011;6394;52.488;13.386;2022-10-16T10:10:57;0.50;;;0.50;;
12658;SDS011;6394;52.488;13.386;2022-10-16T10:13:26;1.80;;;0.50;;
12658;SDS011;6394;52.488;13.386;2022-10-16T10:15:53;0.67;;;0.50;;
12658;SDS011;6394;52.488;13.386;2022-10-16T10:18:21;1.77;;;0.50;;
12658;SDS011;6394;52.488;13.386;2022-10-16T10:20:57;0.90;;;0.60;;
12658;SDS011;6394;52.488;13.386;2022-10-16T10:23:25;1.10;;;0.70;;
12658;SDS011;6394;52.488;13.386;2022-10-16T10:25:53;2.83;;;0.87;;
12658;SDS011;6394;52.488;13.386;2022-10-16T10:28:35;2.33;;;0.70;;
12658;SDS011;6394;52.488;13.386;2022-10-16T10:31:06;0.40;;;0.40;;
12658;SDS011;6394;52.488;13.386;2022-10-16T10:33:39;1.10;;;0.50;;
12658;SDS011;6394;52.488;13.386;2022-10-16T10:36:12;7.50;;;0.93;;
12658;SDS011;6394;52.488;13.386;2022-10-16T10:38:45;0.40;;;0.40;;
12658;SDS011;6394;52.488;13.386;2022-10-16T10:41:19;0.60;;;0.40;;
12658;SDS011;6394;52.488;13.386;2022-10-16T10:43:53;1.97;;;0.73;;
12658;SDS011;6394;52.488;13.386;2022-10-16T10:46:25;3.53;;;0.60;;
12658;SDS011;6394;52.488;13.386;2022-10-16T10:49:05;0.77;;;0.50;;
12658;SDS011;6394;52.488;13.386;2022-10-16T10:51:37;1.40;;;0.70;;
12658;SDS011;6394;52.488;13.386;2022-10-16T10:54:11;3.33;;;0.40;;
12658;SDS011;6394;52.488;13.386;2022-10-16T10:56:42;2.20;;;0.40;;
12658;SDS011;6394;52.488;13.386;2022-10-16T11:01:58;0.53;;;0.40;;
12658;SDS011;6394;52.488;13.386;2022-10-16T11:04:34;0.83;;;0.60;;
12658;SDS011;6394;52.488;13.386;2022-10-16T11:07:04;0.47;;;0.40;;
12658;SDS011;6394;52.488;13.386;2022-10-16T11:09:33;0.70;;;0.40;;
12658;SDS011;6394;52.488;13.386;2022-10-16T11:12:04;0.50;;;0.37;;
12658;SDS011;6394;52.488;13.386;2022-10-16T11:14:34;2.03;;;0.50;;
12658;SDS011;6394;52.488;13.386;2022-10-16T11:17:05;0.60;;;0.33;;
12658;SDS011;6394;52.488;13.386;2022-10-16T11:19:36;0.60;;;0.43;;
12658;SDS011;6394;52.488;13.386;2022-10-16T11:22:06;0.97;;;0.50;;
12658;SDS011;6394;52.488;13.386;2022-10-16T11:24:40;3.67;;;0.53;;
12658;SDS011;6394;52.488;13.386;2022-10-16T11:27:12;0.93;;;0.60;;
12658;SDS011;6394;52.488;13.386;2022-10-16T11:29:44;1.23;;;0.30;;
12658;SDS011;6394;52.488;13.386;2022-10-16T11:32:15;2.43;;;0.33;;
12658;SDS011;6394;52.488;13.386;2022-10-16T11:34:47;1.20;;;0.40;;
12658;SDS011;6394;52.488;13.386;2022-10-16T11:37:17;0.73;;;0.30;;
12658;SDS011;6394;52.488;13.386;2022-10-16T11:39:46;0.57;;;0.30;;
12658;SDS011;6394;52.488;13.386;2022-10-16T11:42:15;1.97;;;0.50;;
12658;SDS011;6394;52.488;13.386;2022-10-16T11:44:50;0.67;;;0.40;;
12658;SDS011;6394;52.488;13.386;2022-10-16T11:47:27;1.47;;;0.40;;
12658;SDS011;6394;52.488;13.386;2022-10-16T11:49:58;0.30;;;0.30;;
12658;SDS011;6394;52.488;13.386;2022-10-16T11:52:28;1.27;;;0.40;;
12658;SDS011;6394;52.488;13.386;2022-10-16T11:54:59;3.43;;;0.40;;
12658;SDS011;6394;52.488;13.386;2022-10-16T11:57:29;0.97;;;0.20;;
12658;SDS011;6394;52.488;13.386;2022-10-16T11:59:59;0.37;;;0.27;;
12658;SDS011;6394;52.488;13.386;2022-10-16T12:02:32;1.27;;;0.40;;
12658;SDS011;6394;52.488;13.386;2022-10-16T12:05:05;1.23;;;0.40;;
12658;SDS011;6394;52.488;13.386;2022-10-16T12:07:34;0.83;;;0.40;;
12658;SDS011;6394;52.488;13.386;2022-10-16T12:10:09;0.47;;;0.30;;
12658;SDS011;6394;52.488;13.386;2022-10-16T12:12:38;1.17;;;0.37;;
12658;SDS011;6394;52.488;13.386;2022-10-16T12:15:20;1.90;;;0.40;;
12658;SDS011;6394;52.488;13.386;2022-10-16T12:17:50;1.70;;;0.30;;
12658;SDS011;6394;52.488;13.386;2022-10-16T12:20:27;1.10;;;0.30;;
12658;SDS011;6394;52.488;13.386;2022-10-16T12:22:58;0.50;;;0.23;;
12658;SDS011;6394;52.488;13.386;2022-10-16T12:25:26;0.83;;;0.40;;
12658;SDS011;6394;52.488;13.386;2022-10-16T12:27:56;0.53;;;0.30;;
12658;SDS011;6394;52.488;13.386;2022-10-16T12:30:24;1.17;;;0.33;;
12658;SDS011;6394;52.488;13.386;2022-10-16T12:32:54;1.07;;;0.33;;
12658;SDS011;6394;52.488;13.386;2022-10-16T12:35:23;0.97;;;0.23;;
12658;SDS011;6394;52.488;13.386;2022-10-16T12:37:50;2.63;;;0.20;;
12658;SDS011;6394;52.488;13.386;2022-10-16T12:40:24;1.70;;;0.40;;
12658;SDS011;6394;52.488;13.386;2022-10-16T12:42:52;1.17;;;0.57;;
12658;SDS011;6394;52.488;13.386;2022-10-16T12:45:26;1.90;;;0.50;;
12658;SDS011;6394;52.488;13.386;2022-10-16T12:47:56;2.00;;;0.37;;
12658;SDS011;6394;52.488;13.386;2022-10-16T12:50:31;0.57;;;0.20;;
12658;SDS011;6394;52.488;13.386;2022-10-16T12:52:58;0.77;;;0.20;;
12658;SDS011;6394;52.488;13.386;2022-10-16T12:55:26;0.70;;;0.20;;
12658;SDS011;6394;52.488;13.386;2022-10-16T12:58:00;0.90;;;0.20;;
12658;SDS011;6394;52.488;13.386;2022-10-16T13:00:32;3.50;;;0.33;;
12658;SDS011;6394;52.488;13.386;2022-10-16T13:05:48;0.63;;;0.20;;
12658;SDS011;6394;52.488;13.386;2022-10-16T13:08:23;2.90;;;0.50;;
12658;SDS011;6394;52.488;13.386;2022-10-16T13:10:55;1.53;;;0.30;;
12658;SDS011;6394;52.488;13.386;2022-10-16T13:13:35;0.63;;;0.40;;
12658;SDS011;6394;52.488;13.386;2022-10-16T13:16:09;0.50;;;0.20;;
12658;SDS011;6394;52.488;13.386;2022-10-16T13:18:42;1.70;;;0.37;;
12658;SDS011;6394;52.488;13.386;2022-10-16T13:21:17;2.13;;;0.40;;
12658;SDS011;6394;52.488;13.386;2022-10-16T13:23:47;1.53;;;0.30;;
12658;SDS011;6394;52.488;13.386;2022-10-16T13:26:17;0.40;;;0.20;;
12658;SDS011;6394;52.488;13.386;2022-10-16T13:28:46;2.37;;;0.30;;
12658;SDS011;6394;52.488;13.386;2022-10-16T13:31:15;1.13;;;0.20;;
12658;SDS011;6394;52.488;13.386;2022-10-16T13:33:45;0.90;;;0.30;;
12658;SDS011;6394;52.488;13.386;2022-10-16T13:36:21;0.80;;;0.30;;
12658;SDS011;6394;52.488;13.386;2022-10-16T13:38:48;2.33;;;0.40;;
12658;SDS011;6394;52.488;13.386;2022-10-16T13:41:26;2.10;;;0.37;;
12658;SDS011;6394;52.488;13.386;2022-10-16T13:43:53;0.30;;;0.20;;
12658;SDS011;6394;52.488;13.386;2022-10-16T13:46:21;0.30;;;0.30;;
12658;SDS011;6394;52.488;13.386;2022-10-16T13:48:56;0.33;;;0.30;;
12658;SDS011;6394;52.488;13.386;2022-10-16T13:51:25;1.27;;;0.20;;
12658;SDS011;6394;52.488;13.386;2022-10-16T13:53:52;1.03;;;0.27;;
12658;SDS011;6394;52.488;13.386;2022-10-16T13:56:22;1.10;;;0.40;;
12658;SDS011;6394;52.488;13.386;2022-10-16T13:58:59;2.33;;;0.30;;
12658;SDS011;6394;52.488;13.386;2022-10-16T14:01:27;2.33;;;0.30;;
12658;SDS011;6394;52.488;13.386;2022-10-16T14:04:00;1.33;;;0.20;;
12658;SDS011;6394;52.488;13.386;2022-10-16T14:06:30;0.97;;;0.50;;
12658;SDS011;6394;52.488;13.386;2022-10-16T14:08:59;1.00;;;0.30;;
12658;SDS011;6394;52.488;13.386;2022-10-16T14:11:32;0.60;;;0.30;;
12658;SDS011;6394;52.488;13.386;2022-10-16T14:14:00;0.83;;;0.20;;
12658;SDS011;6394;52.488;13.386;2022-10-16T14:16:28;0.50;;;0.30;;
12658;SDS011;6394;52.488;13.386;2022-10-16T14:18:57;0.97;;;0.20;;
12658;SDS011;6394;52.488;13.386;2022-10-16T14:21:26;0.53;;;0.30;;
12658;SDS011;6394;52.488;13.386;2022-10-16T14:23:54;0.80;;;0.20;;
12658;SDS011;6394;52.488;13.386;2022-10-16T14:26:22;1.10;;;0.30;;
12658;SDS011;6394;52.488;13.386;2022-10-16T14:29:00;2.10;;;0.57;;
12658;SDS011;6394;52.488;13.386;2022-10-16T14:31:29;0.30;;;0.20;;
12658;SDS011;6394;52.488;13.386;2022-10-16T14:33:57;1.80;;;0.40;;
12658;SDS011;6394;52.488;13.386;2022-10-16T14:36:24;0.30;;;0.20;;
12658;SDS011;6394;52.488;13.386;2022-10-16T14:38:56;0.83;;;0.40;;
12658;SDS011;6394;52.488;13.386;2022-10-16T14:41:25;0.80;;;0.27;;
12658;SDS011;6394;52.488;13.386;2022-10-16T14:43:53;0.30;;;0.23;;
12658;SDS011;6394;52.488;13.386;2022-10-16T14:46:22;0.60;;;0.27;;
12658;SDS011;6394;52.488;13.386;2022-10-16T14:49:00;0.87;;;0.20;;
12658;SDS011;6394;52.488;13.386;2022-10-16T14:51:34;0.40;;;0.30;;
12658;SDS011;6394;52.488;13.386;2022-10-16T14:54:03;1.50;;;0.40;;
12658;SDS011;6394;52.488;13.386;2022-10-16T14:56:32;0.57;;;0.20;;
12658;SDS011;6394;52.488;13.386;2022-10-16T14:59:02;0.57;;;0.30;;
12658;SDS011;6394;52.488;13.386;2022-10-16T15:01:30;0.57;;;0.30;;
12658;SDS011;6394;52.488;13.386;2022-10-16T15:03:57;2.67;;;0.30;;
12658;SDS011;6394;52.488;13.386;2022-10-16T15:06:25;0.50;;;0.37;;
12658;SDS011;6394;52.488;13.386;2022-10-16T15:08:54;2.13;;;0.30;;